MAPA DE AEROPUERTO

INFORMACIÓN METAR y TAF

METAR FOR LETL
ADDS - METARS form results

(0802 UTC 05 December 2020)
Data provider http://aviationweather.gov/metar/data/
 
METAR text: LETL 050730Z AUTO 31005KT 9999 BKN032 BKN040 M03/M05 Q0999
Conditions at: LETL (TERUEL , ES) observed 0730 UTC 05 December 2020
Temperature: -3.0°C (27°F)
Dewpoint: -5.0°C (23°F) [RH = 86%]
Pressure (altimeter): 29.50 inches Hg (999.0 mb)
Winds: from the NW (310 degrees) at 6 MPH (5 knots; 2.6 m/s)
Visibility: 6 or more miles (10+ km)
Ceiling: 3200 feet AGL
Clouds: broken clouds at 3200 feet AGL
broken clouds at 4000 feet AGL
Weather: no significant weather observed at this time